sensor_id;sensor_type;location;lat;lon;timestamp;pressure;altitude;pressure_sealevel;temperature;humidity
74675;BME280;63200;48.810;12.352;2024-01-25T00:01:54;98409.84;;;6.67;96.73
74675;BME280;63200;48.810;12.352;2024-01-25T00:04:19;98411.97;;;6.65;98.09
74675;BME280;63200;48.810;12.352;2024-01-25T00:06:45;98412.28;;;6.69;98.34
74675;BME280;63200;48.810;12.352;2024-01-25T00:09:10;98412.06;;;6.71;98.26
74675;BME280;63200;48.810;12.352;2024-01-25T00:11:35;98409.28;;;6.65;99.88
74675;BME280;63200;48.810;12.352;2024-01-25T00:14:01;98398.81;;;6.69;99.46
74675;BME280;63200;48.810;12.352;2024-01-25T00:16:27;98413.59;;;6.55;100.00
74675;BME280;63200;48.810;12.352;2024-01-25T00:18:52;98411.00;;;6.60;100.00
74675;BME280;63200;48.810;12.352;2024-01-25T00:21:18;98406.56;;;6.54;100.00
74675;BME280;63200;48.810;12.352;2024-01-25T00:23:43;98402.22;;;6.41;100.00
74675;BME280;63200;48.810;12.352;2024-01-25T00:26:08;98400.22;;;6.36;100.00
74675;BME280;63200;48.810;12.352;2024-01-25T00:28:33;98409.47;;;6.40;100.00
74675;BME280;63200;48.810;12.352;2024-01-25T00:30:59;98409.84;;;6.32;100.00
74675;BME280;63200;48.810;12.352;2024-01-25T00:33:24;98414.66;;;6.30;100.00
74675;BME280;63200;48.810;12.352;2024-01-25T00:35:50;98404.69;;;6.19;100.00
74675;BME280;63200;48.810;12.352;2024-01-25T00:38:16;98409.81;;;6.20;100.00
74675;BME280;63200;48.810;12.352;2024-01-25T00:40:41;98402.22;;;6.17;100.00
74675;BME280;63200;48.810;12.352;2024-01-25T00:43:07;98413.47;;;6.14;100.00
74675;BME280;63200;48.810;12.352;2024-01-25T00:45:33;98402.09;;;6.12;100.00
74675;BME280;63200;48.810;12.352;2024-01-25T00:47:59;98404.91;;;6.17;100.00
74675;BME280;63200;48.810;12.352;2024-01-25T00:50:24;98411.72;;;6.20;100.00
74675;BME280;63200;48.810;12.352;2024-01-25T00:52:51;98395.06;;;6.23;100.00
74675;BME280;63200;48.810;12.352;2024-01-25T00:55:17;98398.25;;;6.31;100.00
74675;BME280;63200;48.810;12.352;2024-01-25T00:57:42;98393.66;;;6.32;100.00
74675;BME280;63200;48.810;12.352;2024-01-25T01:00:08;98382.41;;;6.47;100.00
74675;BME280;63200;48.810;12.352;2024-01-25T01:02:36;98395.66;;;6.48;100.00
74675;BME280;63200;48.810;12.352;2024-01-25T01:05:04;98404.69;;;6.42;100.00
74675;BME280;63200;48.810;12.352;2024-01-25T01:07:30;98392.84;;;6.43;100.00
74675;BME280;63200;48.810;12.352;2024-01-25T01:09:55;98401.31;;;6.47;100.00
74675;BME280;63200;48.810;12.352;2024-01-25T01:12:20;98406.56;;;6.42;100.00
74675;BME280;63200;48.810;12.352;2024-01-25T01:14:46;98392.59;;;6.45;100.00
74675;BME280;63200;48.810;12.352;2024-01-25T01:17:11;98405.16;;;6.39;100.00
74675;BME280;63200;48.810;12.352;2024-01-25T01:19:36;98412.91;;;6.47;100.00
74675;BME280;63200;48.810;12.352;2024-01-25T01:22:02;98398.69;;;6.52;100.00
74675;BME280;63200;48.810;12.352;2024-01-25T01:24:27;98421.00;;;6.59;100.00
74675;BME280;63200;48.810;12.352;2024-01-25T01:26:52;98403.88;;;6.54;100.00
74675;BME280;63200;48.810;12.352;2024-01-25T01:29:17;98405.84;;;6.46;100.00
74675;BME280;63200;48.810;12.352;2024-01-25T01:31:43;98406.22;;;6.38;100.00
74675;BME280;63200;48.810;12.352;2024-01-25T01:34:08;98403.53;;;6.38;100.00
74675;BME280;63200;48.810;12.352;2024-01-25T01:36:34;98374.66;;;6.27;100.00
74675;BME280;63200;48.810;12.352;2024-01-25T01:38:59;98381.13;;;6.26;100.00
74675;BME280;63200;48.810;12.352;2024-01-25T01:41:25;98391.69;;;6.27;100.00
74675;BME280;63200;48.810;12.352;2024-01-25T01:43:53;98383.22;;;6.24;100.00
74675;BME280;63200;48.810;12.352;2024-01-25T01:46:37;98381.81;;;6.09;100.00
74675;BME280;63200;48.810;12.352;2024-01-25T01:49:06;98378.88;;;6.11;100.00
74675;BME280;63200;48.810;12.352;2024-01-25T01:51:32;98374.53;;;6.10;100.00
74675;BME280;63200;48.810;12.352;2024-01-25T01:54:00;98327.94;;;5.79;100.00
74675;BME280;63200;48.810;12.352;2024-01-25T01:56:27;98376.66;;;6.08;100.00
74675;BME280;63200;48.810;12.352;2024-01-25T01:58:56;98381.91;;;6.03;100.00
74675;BME280;63200;48.810;12.352;2024-01-25T02:01:24;98377.94;;;6.05;100.00
74675;BME280;63200;48.810;12.352;2024-01-25T02:03:49;98342.97;;;5.87;100.00
74675;BME280;63200;48.810;12.352;2024-01-25T02:06:15;98373.47;;;5.99;100.00
74675;BME280;63200;48.810;12.352;2024-01-25T02:08:40;98379.69;;;5.99;100.00
74675;BME280;63200;48.810;12.352;2024-01-25T02:11:05;98318.31;;;5.59;100.00
74675;BME280;63200;48.810;12.352;2024-01-25T02:13:31;98376.94;;;5.88;100.00
74675;BME280;63200;48.810;12.352;2024-01-25T02:15:56;98384.69;;;5.96;100.00
74675;BME280;63200;48.810;12.352;2024-01-25T02:18:22;98376.16;;;5.99;100.00
74675;BME280;63200;48.810;12.352;2024-01-25T02:20:47;98346.56;;;5.80;100.00
74675;BME280;63200;48.810;12.352;2024-01-25T02:23:12;98379.91;;;5.98;100.00
74675;BME280;63200;48.810;12.352;2024-01-25T02:25:38;98374.63;;;6.03;100.00
74675;BME280;63200;48.810;12.352;2024-01-25T02:28:03;98388.31;;;5.90;100.00
74675;BME280;63200;48.810;12.352;2024-01-25T02:30:28;98391.59;;;5.92;100.00
74675;BME280;63200;48.810;12.352;2024-01-25T02:32:54;98392.03;;;5.89;100.00
74675;BME280;63200;48.810;12.352;2024-01-25T02:35:20;98400.13;;;5.89;100.00
74675;BME280;63200;48.810;12.352;2024-01-25T02:37:45;98401.78;;;5.90;100.00
74675;BME280;63200;48.810;12.352;2024-01-25T02:40:11;98389.81;;;5.86;100.00
74675;BME280;63200;48.810;12.352;2024-01-25T02:42:36;98395.59;;;5.89;100.00
74675;BME280;63200;48.810;12.352;2024-01-25T02:45:02;98383.59;;;5.73;100.00
74675;BME280;63200;48.810;12.352;2024-01-25T02:47:27;98388.03;;;5.79;100.00
74675;BME280;63200;48.810;12.352;2024-01-25T02:49:52;98390.53;;;5.81;100.00
74675;BME280;63200;48.810;12.352;2024-01-25T02:52:18;98397.66;;;5.75;100.00
74675;BME280;63200;48.810;12.352;2024-01-25T02:54:43;98402.00;;;5.76;100.00
74675;BME280;63200;48.810;12.352;2024-01-25T02:57:08;98396.13;;;5.79;100.00
74675;BME280;63200;48.810;12.352;2024-01-25T02:59:33;98397.06;;;5.73;100.00
74675;BME280;63200;48.810;12.352;2024-01-25T03:01:59;98345.56;;;5.39;100.00
74675;BME280;63200;48.810;12.352;2024-01-25T03:04:24;98409.50;;;5.74;100.00
74675;BME280;63200;48.810;12.352;2024-01-25T03:06:49;98407.38;;;5.76;100.00
74675;BME280;63200;48.810;12.352;2024-01-25T03:09:15;98411.97;;;5.76;100.00
74675;BME280;63200;48.810;12.352;2024-01-25T03:11:40;98370.19;;;5.55;100.00
74675;BME280;63200;48.810;12.352;2024-01-25T03:14:05;98405.72;;;5.75;100.00
74675;BME280;63200;48.810;12.352;2024-01-25T03:16:31;98403.50;;;5.72;100.00
74675;BME280;63200;48.810;12.352;2024-01-25T03:18:56;98401.84;;;5.71;100.00
74675;BME280;63200;48.810;12.352;2024-01-25T03:21:21;98406.19;;;5.72;100.00
74675;BME280;63200;48.810;12.352;2024-01-25T03:23:47;98394.81;;;5.70;100.00
74675;BME280;63200;48.810;12.352;2024-01-25T03:26:12;98396.69;;;5.70;100.00
74675;BME280;63200;48.810;12.352;2024-01-25T03:28:37;98400.53;;;5.62;100.00
74675;BME280;63200;48.810;12.352;2024-01-25T03:31:04;98401.38;;;5.62;100.00
74675;BME280;63200;48.810;12.352;2024-01-25T03:33:30;98394.72;;;5.65;100.00
74675;BME280;63200;48.810;12.352;2024-01-25T03:35:57;98373.00;;;5.48;100.00
74675;BME280;63200;48.810;12.352;2024-01-25T03:38:25;98402.41;;;5.61;100.00
74675;BME280;63200;48.810;12.352;2024-01-25T03:40:51;98413.09;;;5.68;100.00
74675;BME280;63200;48.810;12.352;2024-01-25T03:43:16;98411.34;;;5.74;100.00
74675;BME280;63200;48.810;12.352;2024-01-25T03:45:41;98410.97;;;5.70;100.00
74675;BME280;63200;48.810;12.352;2024-01-25T03:48:07;98416.31;;;5.77;100.00
74675;BME280;63200;48.810;12.352;2024-01-25T03:50:32;98408.22;;;5.77;100.00
74675;BME280;63200;48.810;12.352;2024-01-25T03:52:57;98414.03;;;5.74;100.00
74675;BME280;63200;48.810;12.352;2024-01-25T03:55:22;98412.41;;;5.73;100.00
74675;BME280;63200;48.810;12.352;2024-01-25T03:57:48;98407.00;;;5.73;100.00
74675;BME280;63200;48.810;12.352;2024-01-25T04:00:13;98408.22;;;5.77;100.00
74675;BME280;63200;48.810;12.352;2024-01-25T04:02:39;98402.47;;;5.73;100.00
74675;BME280;63200;48.810;12.352;2024-01-25T04:05:05;98413.34;;;5.66;100.00
74675;BME280;63200;48.810;12.352;2024-01-25T04:07:30;98410.53;;;5.73;100.00
74675;BME280;63200;48.810;12.352;2024-01-25T04:09:55;98401.28;;;5.69;100.00
74675;BME280;63200;48.810;12.352;2024-01-25T04:12:21;98396.84;;;5.75;100.00
74675;BME280;63200;48.810;12.352;2024-01-25T04:14:46;98396.84;;;5.75;100.00
74675;BME280;63200;48.810;12.352;2024-01-25T04:17:11;98369.13;;;5.44;100.00
74675;BME280;63200;48.810;12.352;2024-01-25T04:19:37;98406.91;;;5.67;100.00
74675;BME280;63200;48.810;12.352;2024-01-25T04:22:02;98407.72;;;5.68;100.00
74675;BME280;63200;48.810;12.352;2024-01-25T04:24:27;98412.28;;;5.67;100.00
74675;BME280;63200;48.810;12.352;2024-01-25T04:26:53;98412.88;;;5.70;100.00
74675;BME280;63200;48.810;12.352;2024-01-25T04:29:18;98418.03;;;5.71;100.00
74675;BME280;63200;48.810;12.352;2024-01-25T04:31:44;98364.88;;;5.36;100.00
74675;BME280;63200;48.810;12.352;2024-01-25T04:34:10;98418.63;;;5.73;100.00
74675;BME280;63200;48.810;12.352;2024-01-25T04:36:35;98421.31;;;5.73;100.00
74675;BME280;63200;48.810;12.352;2024-01-25T04:39:01;98418.16;;;5.76;100.00
74675;BME280;63200;48.810;12.352;2024-01-25T04:41:26;98405.47;;;5.65;100.00
74675;BME280;63200;48.810;12.352;2024-01-25T04:43:52;98435.69;;;5.67;100.00
74675;BME280;63200;48.810;12.352;2024-01-25T04:46:17;98383.16;;;5.46;100.00
74675;BME280;63200;48.810;12.352;2024-01-25T04:48:42;98443.50;;;5.87;100.00
74675;BME280;63200;48.810;12.352;2024-01-25T04:51:07;98440.91;;;5.80;100.00
74675;BME280;63200;48.810;12.352;2024-01-25T04:53:33;98437.63;;;5.78;100.00
74675;BME280;63200;48.810;12.352;2024-01-25T04:55:58;98435.03;;;5.72;100.00
74675;BME280;63200;48.810;12.352;2024-01-25T04:58:24;98446.28;;;5.80;100.00
74675;BME280;63200;48.810;12.352;2024-01-25T05:00:50;98418.25;;;5.70;100.00
74675;BME280;63200;48.810;12.352;2024-01-25T05:03:15;98388.91;;;5.49;100.00
74675;BME280;63200;48.810;12.352;2024-01-25T05:05:41;98435.16;;;5.77;100.00
74675;BME280;63200;48.810;12.352;2024-01-25T05:08:06;98411.41;;;5.55;100.00
74675;BME280;63200;48.810;12.352;2024-01-25T05:10:31;98454.03;;;5.77;100.00
74675;BME280;63200;48.810;12.352;2024-01-25T05:12:57;98455.41;;;5.79;100.00
74675;BME280;63200;48.810;12.352;2024-01-25T05:15:22;98449.31;;;5.72;100.00
74675;BME280;63200;48.810;12.352;2024-01-25T05:17:47;98458.34;;;5.78;100.00
74675;BME280;63200;48.810;12.352;2024-01-25T05:20:13;98401.63;;;5.42;100.00
74675;BME280;63200;48.810;12.352;2024-01-25T05:22:40;98457.53;;;5.77;100.00
74675;BME280;63200;48.810;12.352;2024-01-25T05:25:07;98406.22;;;5.42;100.00
74675;BME280;63200;48.810;12.352;2024-01-25T05:27:33;98416.41;;;5.51;100.00
74675;BME280;63200;48.810;12.352;2024-01-25T05:29:59;98468.88;;;5.79;100.00
74675;BME280;63200;48.810;12.352;2024-01-25T05:32:24;98473.84;;;5.82;100.00
74675;BME280;63200;48.810;12.352;2024-01-25T05:34:49;98476.25;;;5.72;100.00
74675;BME280;63200;48.810;12.352;2024-01-25T05:37:14;98477.66;;;5.75;100.00
74675;BME280;63200;48.810;12.352;2024-01-25T05:39:40;98472.50;;;5.73;100.00
74675;BME280;63200;48.810;12.352;2024-01-25T05:42:05;98467.69;;;5.75;100.00
74675;BME280;63200;48.810;12.352;2024-01-25T05:44:30;98466.63;;;5.64;100.00
74675;BME280;63200;48.810;12.352;2024-01-25T05:46:56;98477.06;;;5.73;100.00
74675;BME280;63200;48.810;12.352;2024-01-25T05:49:21;98417.06;;;5.35;100.00
74675;BME280;63200;48.810;12.352;2024-01-25T05:51:46;98472.59;;;5.66;100.00
74675;BME280;63200;48.810;12.352;2024-01-25T05:54:12;98484.88;;;5.62;100.00
74675;BME280;63200;48.810;12.352;2024-01-25T05:56:37;98476.56;;;5.64;100.00
74675;BME280;63200;48.810;12.352;2024-01-25T05:59:02;98476.81;;;5.62;100.00
74675;BME280;63200;48.810;12.352;2024-01-25T06:01:27;98477.84;;;5.61;100.00
74675;BME280;63200;48.810;12.352;2024-01-25T06:03:53;98469.63;;;5.56;100.00
74675;BME280;63200;48.810;12.352;2024-01-25T06:06:18;98489.28;;;5.57;100.00
74675;BME280;63200;48.810;12.352;2024-01-25T06:08:43;98487.06;;;5.54;100.00
74675;BME280;63200;48.810;12.352;2024-01-25T06:11:08;98479.78;;;5.54;100.00
74675;BME280;63200;48.810;12.352;2024-01-25T06:13:34;98473.69;;;5.47;100.00
74675;BME280;63200;48.810;12.352;2024-01-25T06:16:00;98478.69;;;5.43;100.00
74675;BME280;63200;48.810;12.352;2024-01-25T06:18:26;98481.63;;;5.42;100.00
74675;BME280;63200;48.810;12.352;2024-01-25T06:20:51;98475.13;;;5.31;100.00
74675;BME280;63200;48.810;12.352;2024-01-25T06:23:17;98477.50;;;5.39;100.00
74675;BME280;63200;48.810;12.352;2024-01-25T06:25:42;98457.88;;;5.02;100.00
74675;BME280;63200;48.810;12.352;2024-01-25T06:28:07;98490.91;;;5.27;100.00
74675;BME280;63200;48.810;12.352;2024-01-25T06:30:33;98492.31;;;5.30;100.00
74675;BME280;63200;48.810;12.352;2024-01-25T06:32:58;98490.53;;;5.24;100.00
74675;BME280;63200;48.810;12.352;2024-01-25T06:35:23;98479.16;;;5.22;100.00
74675;BME280;63200;48.810;12.352;2024-01-25T06:37:49;98453.44;;;5.07;100.00
74675;BME280;63200;48.810;12.352;2024-01-25T06:40:14;98477.28;;;5.22;100.00
74675;BME280;63200;48.810;12.352;2024-01-25T06:42:39;98496.06;;;5.29;100.00
74675;BME280;63200;48.810;12.352;2024-01-25T06:45:05;98485.59;;;5.21;100.00
74675;BME280;63200;48.810;12.352;2024-01-25T06:47:30;98489.72;;;5.23;100.00
74675;BME280;63200;48.810;12.352;2024-01-25T06:49:55;98491.50;;;5.29;100.00
74675;BME280;63200;48.810;12.352;2024-01-25T06:52:21;98483.44;;;5.29;100.00
74675;BME280;63200;48.810;12.352;2024-01-25T06:54:46;98492.41;;;5.23;100.00
74675;BME280;63200;48.810;12.352;2024-01-25T06:57:11;98513.47;;;5.26;100.00
74675;BME280;63200;48.810;12.352;2024-01-25T06:59:37;98516.16;;;5.26;100.00
74675;BME280;63200;48.810;12.352;2024-01-25T07:02:02;98499.94;;;5.14;100.00
74675;BME280;63200;48.810;12.352;2024-01-25T07:04:29;98485.03;;;4.93;100.00
74675;BME280;63200;48.810;12.352;2024-01-25T07:06:54;98538.72;;;5.32;100.00
74675;BME280;63200;48.810;12.352;2024-01-25T07:09:20;98541.97;;;5.34;100.00
74675;BME280;63200;48.810;12.352;2024-01-25T07:11:45;98551.50;;;5.37;100.00
74675;BME280;63200;48.810;12.352;2024-01-25T07:14:11;98546.47;;;5.40;100.00
74675;BME280;63200;48.810;12.352;2024-01-25T07:16:36;98544.69;;;5.34;100.00
74675;BME280;63200;48.810;12.352;2024-01-25T07:19:01;98539.44;;;5.39;100.00
74675;BME280;63200;48.810;12.352;2024-01-25T07:21:28;98546.31;;;5.54;100.00
74675;BME280;63200;48.810;12.352;2024-01-25T07:23:53;98516.81;;;5.77;100.00
74675;BME280;63200;48.810;12.352;2024-01-25T07:26:18;98542.81;;;6.21;100.00
74675;BME280;63200;48.810;12.352;2024-01-25T07:28:44;98546.25;;;6.40;100.00
74675;BME280;63200;48.810;12.352;2024-01-25T07:31:09;98526.53;;;6.39;100.00
74675;BME280;63200;48.810;12.352;2024-01-25T07:33:35;98491.78;;;6.07;100.00
74675;BME280;63200;48.810;12.352;2024-01-25T07:36:02;98546.94;;;6.35;100.00
74675;BME280;63200;48.810;12.352;2024-01-25T07:38:27;98558.72;;;5.92;100.00
74675;BME280;63200;48.810;12.352;2024-01-25T07:40:53;98499.84;;;5.40;100.00
74675;BME280;63200;48.810;12.352;2024-01-25T07:43:18;98529.56;;;5.51;100.00
74675;BME280;63200;48.810;12.352;2024-01-25T07:45:43;98589.88;;;5.69;100.00
74675;BME280;63200;48.810;12.352;2024-01-25T07:48:09;98587.13;;;5.57;100.00
74675;BME280;63200;48.810;12.352;2024-01-25T07:50:34;98607.75;;;5.63;100.00
74675;BME280;63200;48.810;12.352;2024-01-25T07:52:59;98616.81;;;5.69;100.00
74675;BME280;63200;48.810;12.352;2024-01-25T07:55:26;98605.34;;;5.55;100.00
74675;BME280;63200;48.810;12.352;2024-01-25T07:57:52;98632.22;;;5.80;100.00
74675;BME280;63200;48.810;12.352;2024-01-25T08:00:17;98661.06;;;5.80;100.00
74675;BME280;63200;48.810;12.352;2024-01-25T08:02:42;98657.53;;;5.79;100.00
74675;BME280;63200;48.810;12.352;2024-01-25T08:05:10;98609.47;;;5.58;100.00
74675;BME280;63200;48.810;12.352;2024-01-25T08:07:36;98626.75;;;5.68;100.00
74675;BME280;63200;48.810;12.352;2024-01-25T08:10:03;98658.75;;;5.83;100.00
74675;BME280;63200;48.810;12.352;2024-01-25T08:12:29;98663.06;;;5.84;100.00
74675;BME280;63200;48.810;12.352;2024-01-25T08:14:55;98653.88;;;5.92;100.00
74675;BME280;63200;48.810;12.352;2024-01-25T08:17:20;98651.88;;;6.06;100.00
74675;BME280;63200;48.810;12.352;2024-01-25T08:19:46;98600.97;;;6.71;100.00
74675;BME280;63200;48.810;12.352;2024-01-25T08:22:12;98623.84;;;7.98;84.50
74675;BME280;63200;48.810;12.352;2024-01-25T08:24:38;98654.59;;;7.57;83.68
74675;BME280;63200;48.810;12.352;2024-01-25T08:27:04;98664.69;;;7.38;87.74
74675;BME280;63200;48.810;12.352;2024-01-25T08:29:30;98661.59;;;6.87;94.30
74675;BME280;63200;48.810;12.352;2024-01-25T08:31:55;98649.69;;;6.76;96.62
74675;BME280;63200;48.810;12.352;2024-01-25T08:34:20;98655.75;;;6.29;100.00
74675;BME280;63200;48.810;12.352;2024-01-25T08:36:46;98645.19;;;6.27;100.00
74675;BME280;63200;48.810;12.352;2024-01-25T08:39:11;98657.81;;;6.27;100.00
74675;BME280;63200;48.810;12.352;2024-01-25T08:41:37;98653.63;;;7.87;89.11
74675;BME280;63200;48.810;12.352;2024-01-25T08:44:02;98655.44;;;9.64;73.13
74675;BME280;63200;48.810;12.352;2024-01-25T08:46:28;98655.88;;;9.05;73.02
74675;BME280;63200;48.810;12.352;2024-01-25T08:48:53;98657.00;;;9.60;71.48
74675;BME280;63200;48.810;12.352;2024-01-25T08:51:18;98664.34;;;8.92;71.25
74675;BME280;63200;48.810;12.352;2024-01-25T08:53:44;98652.41;;;9.61;72.32
74675;BME280;63200;48.810;12.352;2024-01-25T08:56:09;98654.34;;;10.27;66.45
74675;BME280;63200;48.810;12.352;2024-01-25T08:58:34;98646.28;;;8.97;70.33
74675;BME280;63200;48.810;12.352;2024-01-25T09:01:00;98646.34;;;10.15;69.25
74675;BME280;63200;48.810;12.352;2024-01-25T09:03:25;98647.97;;;10.88;63.14
74675;BME280;63200;48.810;12.352;2024-01-25T09:05:51;98642.84;;;10.64;63.43
74675;BME280;63200;48.810;12.352;2024-01-25T09:08:16;98655.38;;;9.42;65.49
74675;BME280;63200;48.810;12.352;2024-01-25T09:10:42;98662.97;;;8.08;74.43
74675;BME280;63200;48.810;12.352;2024-01-25T09:13:08;98665.16;;;7.23;83.77
74675;BME280;63200;48.810;12.352;2024-01-25T09:15:34;98673.59;;;7.03;86.20
74675;BME280;63200;48.810;12.352;2024-01-25T09:17:59;98676.09;;;6.74;88.14
74675;BME280;63200;48.810;12.352;2024-01-25T09:20:24;98686.16;;;6.66;90.40
74675;BME280;63200;48.810;12.352;2024-01-25T09:22:50;98680.41;;;6.63;88.44
74675;BME280;63200;48.810;12.352;2024-01-25T09:25:16;98688.69;;;6.61;88.70
74675;BME280;63200;48.810;12.352;2024-01-25T09:27:41;98679.16;;;6.47;91.00
74675;BME280;63200;48.810;12.352;2024-01-25T09:30:07;98682.78;;;6.41;92.96
74675;BME280;63200;48.810;12.352;2024-01-25T09:32:33;98684.03;;;6.38;93.54
74675;BME280;63200;48.810;12.352;2024-01-25T09:34:58;98690.09;;;6.33;94.59
74675;BME280;63200;48.810;12.352;2024-01-25T09:37:24;98695.31;;;6.35;98.07
74675;BME280;63200;48.810;12.352;2024-01-25T09:39:50;98687.41;;;6.33;97.04
74675;BME280;63200;48.810;12.352;2024-01-25T09:42:17;98694.91;;;6.31;96.13
74675;BME280;63200;48.810;12.352;2024-01-25T09:44:43;98703.31;;;6.42;93.85
74675;BME280;63200;48.810;12.352;2024-01-25T09:47:08;98701.66;;;6.41;97.91
74675;BME280;63200;48.810;12.352;2024-01-25T09:49:34;98693.31;;;6.42;94.45
74675;BME280;63200;48.810;12.352;2024-01-25T09:52:01;98693.75;;;6.58;93.33
74675;BME280;63200;48.810;12.352;2024-01-25T09:54:35;98698.59;;;6.67;94.08
74675;BME280;63200;48.810;12.352;2024-01-25T09:57:08;98693.19;;;6.67;92.86
74675;BME280;63200;48.810;12.352;2024-01-25T09:59:33;98686.88;;;6.74;90.92
74675;BME280;63200;48.810;12.352;2024-01-25T10:01:59;98634.41;;;6.58;90.37
74675;BME280;63200;48.810;12.352;2024-01-25T10:04:26;98682.31;;;7.64;81.79
74675;BME280;63200;48.810;12.352;2024-01-25T10:06:55;98702.75;;;7.36;82.35
74675;BME280;63200;48.810;12.352;2024-01-25T10:09:21;98710.47;;;7.21;84.95
74675;BME280;63200;48.810;12.352;2024-01-25T10:11:46;98714.91;;;7.03;81.50
74675;BME280;63200;48.810;12.352;2024-01-25T10:14:11;98705.75;;;7.04;80.89
74675;BME280;63200;48.810;12.352;2024-01-25T10:16:36;98713.09;;;6.85;83.16
74675;BME280;63200;48.810;12.352;2024-01-25T10:19:06;98642.53;;;6.39;83.64
74675;BME280;63200;48.810;12.352;2024-01-25T10:21:31;98713.56;;;6.82;84.69
74675;BME280;63200;48.810;12.352;2024-01-25T10:23:57;98708.75;;;6.84;83.32
74675;BME280;63200;48.810;12.352;2024-01-25T10:26:26;98710.28;;;6.92;85.54
74675;BME280;63200;48.810;12.352;2024-01-25T10:28:53;98702.91;;;6.99;83.48
74675;BME280;63200;48.810;12.352;2024-01-25T10:31:23;98691.97;;;7.60;81.25
74675;BME280;63200;48.810;12.352;2024-01-25T10:33:52;98633.91;;;7.74;73.01
74675;BME280;63200;48.810;12.352;2024-01-25T10:36:18;98683.69;;;8.14;73.80
74675;BME280;63200;48.810;12.352;2024-01-25T10:38:44;98685.13;;;8.74;71.14
74675;BME280;63200;48.810;12.352;2024-01-25T10:41:09;98682.25;;;8.81;65.94
74675;BME280;63200;48.810;12.352;2024-01-25T10:43:36;98694.19;;;7.75;69.55
74675;BME280;63200;48.810;12.352;2024-01-25T10:46:01;98694.38;;;8.61;70.32
74675;BME280;63200;48.810;12.352;2024-01-25T10:48:28;98686.59;;;9.11;63.01
74675;BME280;63200;48.810;12.352;2024-01-25T10:50:56;98649.94;;;8.91;63.35
74675;BME280;63200;48.810;12.352;2024-01-25T10:53:24;98700.19;;;7.77;65.96
74675;BME280;63200;48.810;12.352;2024-01-25T10:55:50;98646.03;;;7.36;69.55
74675;BME280;63200;48.810;12.352;2024-01-25T10:58:16;98664.34;;;7.46;70.69
74675;BME280;63200;48.810;12.352;2024-01-25T11:00:41;98684.09;;;7.70;73.00
74675;BME280;63200;48.810;12.352;2024-01-25T11:03:07;98689.78;;;8.09;68.61
74675;BME280;63200;48.810;12.352;2024-01-25T11:05:32;98684.25;;;8.04;67.97
74675;BME280;63200;48.810;12.352;2024-01-25T11:07:58;98690.66;;;7.62;66.97
74675;BME280;63200;48.810;12.352;2024-01-25T11:10:25;98684.06;;;8.34;65.69
74675;BME280;63200;48.810;12.352;2024-01-25T11:12:58;98687.16;;;9.64;62.85
74675;BME280;63200;48.810;12.352;2024-01-25T11:15:31;98690.22;;;8.88;61.57
74675;BME280;63200;48.810;12.352;2024-01-25T11:17:57;98642.03;;;8.15;63.56
74675;BME280;63200;48.810;12.352;2024-01-25T11:20:25;98689.38;;;7.89;64.42
74675;BME280;63200;48.810;12.352;2024-01-25T11:22:59;98689.13;;;7.90;63.82
74675;BME280;63200;48.810;12.352;2024-01-25T11:25:30;98697.25;;;7.78;64.78
74675;BME280;63200;48.810;12.352;2024-01-25T11:27:56;98688.22;;;7.49;65.76
74675;BME280;63200;48.810;12.352;2024-01-25T11:30:21;98653.28;;;7.59;67.50
74675;BME280;63200;48.810;12.352;2024-01-25T11:32:47;98632.63;;;7.41;66.94
74675;BME280;63200;48.810;12.352;2024-01-25T11:35:13;98660.34;;;7.37;65.63
74675;BME280;63200;48.810;12.352;2024-01-25T11:37:45;98688.19;;;7.37;67.09
74675;BME280;63200;48.810;12.352;2024-01-25T11:40:11;98691.56;;;7.21;65.70
74675;BME280;63200;48.810;12.352;2024-01-25T11:42:42;98677.56;;;7.00;65.55
74675;BME280;63200;48.810;12.352;2024-01-25T11:45:09;98678.25;;;6.95;66.70
74675;BME280;63200;48.810;12.352;2024-01-25T11:47:36;98666.44;;;7.08;68.73
74675;BME280;63200;48.810;12.352;2024-01-25T11:50:02;98624.31;;;6.65;66.80
74675;BME280;63200;48.810;12.352;2024-01-25T11:52:28;98681.28;;;6.87;67.53
74675;BME280;63200;48.810;12.352;2024-01-25T11:54:53;98635.47;;;6.69;68.38
74675;BME280;63200;48.810;12.352;2024-01-25T11:57:19;98674.06;;;7.11;66.97
74675;BME280;63200;48.810;12.352;2024-01-25T11:59:45;98684.19;;;7.28;65.68
74675;BME280;63200;48.810;12.352;2024-01-25T12:02:14;98675.13;;;7.22;64.62
74675;BME280;63200;48.810;12.352;2024-01-25T12:04:40;98672.09;;;7.19;65.00
74675;BME280;63200;48.810;12.352;2024-01-25T12:07:05;98679.13;;;7.20;65.58
74675;BME280;63200;48.810;12.352;2024-01-25T12:09:30;98674.91;;;7.24;67.05
74675;BME280;63200;48.810;12.352;2024-01-25T12:11:56;98640.94;;;6.92;66.99
74675;BME280;63200;48.810;12.352;2024-01-25T12:14:23;98634.91;;;6.78;66.62
74675;BME280;63200;48.810;12.352;2024-01-25T12:16:49;98678.38;;;7.00;65.52
74675;BME280;63200;48.810;12.352;2024-01-25T12:19:14;98676.56;;;6.82;65.74
74675;BME280;63200;48.810;12.352;2024-01-25T12:21:43;98673.88;;;6.82;65.81
74675;BME280;63200;48.810;12.352;2024-01-25T12:24:09;98615.22;;;6.47;67.02
74675;BME280;63200;48.810;12.352;2024-01-25T12:26:35;98664.97;;;6.82;66.37
74675;BME280;63200;48.810;12.352;2024-01-25T12:29:01;98665.19;;;6.80;67.19
74675;BME280;63200;48.810;12.352;2024-01-25T12:31:28;98663.44;;;6.86;67.61
74675;BME280;63200;48.810;12.352;2024-01-25T12:33:53;98660.28;;;6.89;67.45
74675;BME280;63200;48.810;12.352;2024-01-25T12:36:18;98646.38;;;7.16;67.10
74675;BME280;63200;48.810;12.352;2024-01-25T12:38:44;98651.19;;;7.26;66.15
74675;BME280;63200;48.810;12.352;2024-01-25T12:41:09;98648.84;;;7.29;65.86
74675;BME280;63200;48.810;12.352;2024-01-25T12:43:34;98651.91;;;7.33;66.09
74675;BME280;63200;48.810;12.352;2024-01-25T12:46:00;98647.56;;;7.44;67.15